Tiempo atmosférico en la estación meteorológica de Cortes De La Frontera, Málaga (315 m.)



Fecha
DESCASC
Temp. máxima en grados centígrados (hora)
DESCASC
Temp. mínima en grados centígrados (hora)
DESCASC
Temp. media en grados centígrados
DESCASC
Racha de viento máxima en m/sg (hora)
DESCASC
Velocidad máxima media en intervalos de 10 minutos(hora)
DESCASC
Precipitaciones diarias en mm
DESCASC
Precipitaciones de 00:00 a 06:00 en mm
DESCASC
Precipitaciones de 06:00 a 12:00 en mm
DESCASC
Precipitaciones de 12:00 a 18:00 en mm
DESCASC
Precipitaciones de 18:00 a 24:00 en mm
DESCASC
18-04-2019 17.4 (16:30) 8.7 (23:59) 13 7.5 (19:20) 1.67 (17:00) 8.4 1.4 5.8 0 1.2
17-04-2019 18.6 (14:00) 9.6 (06:50) 14.1 7.78 (14:50) 1.67 (14:50) 0 0 0 0 0
16-04-2019 24.1 (15:00) 8.7 (00:00) 16.4 6.11 (16:10) 2.22 (16:10) 0 0 0 0 0
15-04-2019 25.5 (14:30) 10.8 (00:00) 18.2 7.22 (14:50) 1.94 (15:30) 0 0 0 0 0
14-04-2019 26.2 (16:20) 10.1 (00:00) 18.2 5 (18:00) 1.94 (13:40) 0 0 0 0 0
13-04-2019 24.1 (15:20) 7.2 (00:00) 15.7 5.83 (17:30) 1.94 (17:30) 0 0 0 0 0
12-04-2019 22.1 (15:10) 6.7 (00:00) 14.4 5.28 (14:40) 1.94 (12:20) 0 0 0 0 0
11-04-2019 19.6 (14:10) 6.6 (00:00) 13.1 7.5 (14:40) 2.5 (13:20) 0 0 0 0 0
10-04-2019 17.3 (16:00) 7.5 (00:00) 12.4 8.89 (14:20) 2.5 (14:00) 0 0 0 0 0
09-04-2019 17 (16:00) 7.4 (00:00) 12.2 6.39 (12:10) 1.67 (15:50) 0.2 0 0.2 0 0
08-04-2019 15.3 (16:50) 9.2 (00:00) 12.3 5 (16:40) 1.11 (16:10) 3.8 0.4 0.2 0.8 2.4
07-04-2019 13.8 (15:00) 7.9 (00:00) 10.9 3.89 (14:50) 1.39 (14:50) 17.4 2.4 0 3.4 11.6
06-04-2019 13.7 (14:40) 6.4 (00:00) 10 5.28 (11:50) 1.67 (13:30) 13.4 1.4 6 3 3
05-04-2019 13.7 (15:20) 6.7 (00:00) 10.2 7.5 (16:20) 2.22 (16:20) 20 0.2 14.8 4.2 0.8
04-04-2019 19 (14:10) 6 (00:00) 12.5 5.83 (16:00) 2.22 (17:10) 0 0 0 0 0
03-04-2019 22.3 (14:40) 7.8 (00:00) 15 5.28 (14:30) 1.67 (13:30) 0 0 0 0 0
02-04-2019 20.6 (16:10) 6.1 (00:00) 13.4 4.17 (15:10) 1.67 (13:50) 0 0 0 0 0
01-04-2019 16.1 (18:30) 9.4 (00:00) 12.8 4.44 (17:10) 1.11 (16:20) 18.8 0 18.4 0.4 0
31-03-2019 18.4 (15:30) 11.2 (00:00) 14.8 4.17 (15:10) 1.67 (15:10) 4 2 1.2 0.8 0
30-03-2019 18.6 (13:10) 8.6 (00:00) 13.6 6.94 (13:20) 2.5 (14:00) 0 0 0 0 0
29-03-2019 16 (13:40) 8.8 (00:00) 12.4 5.83 (13:30) 1.94 (15:10) 0 0 0 0 0
28-03-2019 17.2 (11:30) 9.5 (00:00) 13.4 11.11 (17:10) 3.06 (15:00) 0 0 0 0 0
27-03-2019 17 (13:10) 11.1 (00:00) 14.1 11.67 (15:10) 3.06 (16:10) 0 0 0 0 0
26-03-2019 20.2 (11:50) 10.9 (00:00) 15.6 9.44 (11:30) 3.06 (14:50) 0 0 0 0 0
25-03-2019 20.7 (13:50) 10.5 (00:00) 15.6 6.67 (13:10) 2.5 (14:30) 0 0 0 0 0
24-03-2019 18.2 (16:20) 12.4 (00:00) 15.3 8.61 (14:30) 2.78 (14:30) 0 0 0 0 0
23-03-2019 17.2 (12:50) 12 (00:00) 14.6 11.11 (13:40) 3.33 (13:50) 0 0 0 0 0
22-03-2019 16.3 (13:00) 10.3 (00:00) 13.3 8.06 (14:30) 2.78 (14:30) 0 0 0 0 0
21-03-2019 16.3 (14:40) 7.6 (00:00) 11.9 9.44 (13:30) 3.61 (14:20) 1.2 1.2 0 0 0

Gráficas

Temp. máximas Temp. mínimas Temp. medias Precipitaciones Rachas de viento máximas Velocidades máximas media en intervalos de 10 minutos

Datos horarios

Fecha y hora oficial Temperatura (ºC) Velocidad del viento (km/h) Dirección del viento Racha (km/h) Dirección de racha Precipitación (mm) Presión (hPa) Tendencia (hPa) Humedad (%)
2019-04-19 23:00:00 11.1 2 Norte 10 Norte 1.2 -- -- 94
2019-04-19 22:00:00 11.6 2 Sudeste 7 Este 1 -- -- 90
2019-04-19 21:00:00 12.9 3 Este 15 Noroeste 0 -- -- 81
2019-04-19 20:00:00 13.4 0 Calma 2 Noroeste 0 -- -- 87
2019-04-19 19:00:00 14.1 0 Calma 6 Sudeste 0 -- -- 82
2019-04-19 18:00:00 13.9 0 Calma 7 Norte 0 -- -- 77
2019-04-19 17:00:00 12.6 0 Calma 4 Este 0.4 -- -- 85
2019-04-19 16:00:00 13.4 0 Calma 11 Sur 0.6 -- -- 86
2019-04-19 15:00:00 15.8 4 Sudeste 16 Sudeste 0 -- -- 65
2019-04-19 14:00:00 17.1 3 Norte 16 Noroeste 0 -- -- 51
2019-04-19 13:00:00 16.5 4 Norte 12 Nordeste 0 -- -- 62
2019-04-19 12:00:00 15.9 4 Sur 11 Sudeste 0 -- -- 68
2019-04-19 11:00:00 15.5 5 Este 13 Este 0 -- -- 72
2019-04-19 10:00:00 10.3 2 Sudoeste 6 Sudoeste 0 -- -- 95
2019-04-19 09:00:00 7.4 0 Calma 3 Sur 0 -- -- 97
2019-04-19 08:00:00 7.3 0 Calma 4 Noroeste 0 -- -- 96
2019-04-19 07:00:00 7.5 0 Calma 3 Noroeste 0 -- -- 96
2019-04-19 06:00:00 8.1 0 Calma 3 Norte 0 -- -- 95
2019-04-19 05:00:00 8.6 0 Calma 2 Noroeste 0 -- -- 97
2019-04-19 04:00:00 8.4 0 Calma 3 Norte 0 -- -- 97
2019-04-19 03:00:00 8.2 0 Calma 2 Norte 0 -- -- 96
2019-04-19 02:00:00 8.3 0 Calma 2 Noroeste 0 -- -- 95
2019-04-19 01:00:00 8.6 0 Calma 5 Noroeste 0 -- -- 95
2019-04-19 00:00:00 8.7 2 Norte 3 Norte 0 -- -- 94
2019-04-18 23:00:00 9.8 2 Norte 4 Norte 0.2 -- -- 92
2019-04-18 22:00:00 10.4 3 Norte 14 Noroeste 0.6 -- -- 90
2019-04-18 21:00:00 11.4 4 Norte 15 Norte 0.4 -- -- 85
2019-04-18 20:00:00 12.8 4 Norte 27 Norte 0 -- -- 73
2019-04-18 19:00:00 15.4 4 Sur 18 Sur 0 -- -- 70
2019-04-18 18:00:00 15.8 3 Sudeste 19 Sur 0 -- -- 65
2019-04-18 17:00:00 17 6 Sur 18 Sur 0 -- -- 61
2019-04-18 16:00:00 16.6 5 Sur 12 Sudoeste 0 -- -- 63
2019-04-18 15:00:00 16.4 2 Este 15 Sur 0 -- -- 65
2019-04-18 14:00:00 16.4 3 Sudeste 12 Sur 0 -- -- 66
2019-04-18 13:00:00 15.6 4 Sur 11 Sur 0 -- -- 73
2019-04-18 12:00:00 14.2 2 Sur 9 Sur 0 -- -- 80
2019-04-18 11:00:00 10.9 0 Calma 8 Nordeste 1 -- -- 93
2019-04-18 10:00:00 10.7 2 Norte 8 Norte 4.8 -- -- 94
2019-04-18 09:00:00 11.1 0 Calma 3 Sur 0 -- -- 97
2019-04-18 08:00:00 10.1 0 Calma 3 Norte 0 -- -- 95
2019-04-18 07:00:00 10.7 0 Calma 3 Este 0 -- -- 95
2019-04-18 06:00:00 11.4 0 Calma 4 Norte 0 -- -- 95
2019-04-18 05:00:00 11.5 0 Calma 3 Norte 1 -- -- 94
2019-04-18 04:00:00 11.7 0 Calma 4 Noroeste 0.2 -- -- 92
2019-04-18 03:00:00 12 2 Norte -- -- 0.2 -- -- 90
2019-04-18 02:00:00 12.3 2 Noroeste 4 Norte 0 -- -- 80
2019-04-18 01:00:00 12.5 0 Calma 4 Sudoeste 0 -- -- 80
2019-04-18 00:00:00 13 0 Calma 4 Norte 0 -- -- 79
2019-04-17 23:00:00 13.4 0 Calma 9 Nordeste 0 -- -- 77
2019-04-17 22:00:00 13.3 2 Nordeste 10 Sudeste 0 -- -- 79
2019-04-17 21:00:00 13.5 3 Nordeste 13 Noroeste 0 -- -- 79
2019-04-17 20:00:00 15.1 2 Sur 6 Sudoeste 0 -- -- 81
2019-04-17 19:00:00 15.1 0 Calma 6 Sur 0 -- -- 79
2019-04-17 18:00:00 15.7 3 Sudoeste 13 Sur 0 -- -- 77
2019-04-17 17:00:00 16.1 3 Sur 12 Sudoeste 0 -- -- 76
2019-04-17 16:00:00 17.1 4 Sur 20 Sur 0 -- -- 69
2019-04-17 15:00:00 16.5 6 Sur 28 Sudeste 0 -- -- 72
2019-04-17 14:00:00 18.6 6 Sudeste 21 Sudeste 0 -- -- 61
2019-04-17 13:00:00 18.3 4 Sur 14 Sudeste 0 -- -- 62
2019-04-17 12:00:00 17.3 4 Sudeste 21 Sudeste 0 -- -- 68
2019-04-17 11:00:00 16.5 4 Sudeste 8 Sudoeste 0 -- -- 77
2019-04-17 10:00:00 14 3 Sudeste 7 Este 0 -- -- 82
2019-04-17 09:00:00 11.4 0 Calma 4 Noroeste 0 -- -- 91
2019-04-17 08:00:00 10 0 Calma 3 Noroeste 0 -- -- 90
2019-04-17 07:00:00 9.6 2 Norte 4 Norte 0 -- -- 89
2019-04-17 06:00:00 9.7 2 Norte 4 Norte 0 -- -- 89
2019-04-17 05:00:00 9.8 2 Norte 4 Norte 0 -- -- 89
2019-04-17 04:00:00 9.9 2 Noroeste 4 Noroeste 0 -- -- 89
2019-04-17 03:00:00 9.7 0 Calma 4 Norte 0 -- -- 87
2019-04-17 02:00:00 10.2 2 Norte 4 Norte 0 -- -- 88
2019-04-17 01:00:00 10.9 3 Norte 3 Norte 0 -- -- 88
2019-04-17 00:00:00 11.2 2 Noroeste 4 Norte 0 -- -- 86
2019-04-16 23:00:00 11.8 2 Norte 4 Norte 0 -- -- 80
2019-04-16 22:00:00 13.1 3 Norte 3 Norte 0 -- -- 73
2019-04-16 21:00:00 15.2 0 Calma 5 Nordeste 0 -- -- 66
2019-04-16 20:00:00 17.3 2 Sudeste 12 Sudoeste 0 -- -- 57
2019-04-16 19:00:00 19.1 5 Sur 17 Sur 0 -- -- 50
2019-04-16 18:00:00 20.3 5 Sudeste 19 Sudoeste 0 -- -- 48
2019-04-16 17:00:00 22.1 6 Sur 22 Sur 0 -- -- 45
2019-04-16 16:00:00 23.7 7 Sur 18 Sur 0 -- -- 37
2019-04-16 15:00:00 24.1 6 Sur 16 Sur 0 -- -- 35
2019-04-16 14:00:00 23.7 5 Sur 17 Sur 0 -- -- 31
2019-04-16 13:00:00 22 7 Sur 19 Sur 0 -- -- 41
2019-04-16 12:00:00 20.8 4 Sudeste 13 Sur 0 -- -- 51
2019-04-16 11:00:00 18.3 3 Sur 10 Sur 0 -- -- 61
2019-04-16 10:00:00 13.5 3 Sudoeste 13 Sudeste 0 -- -- 80
2019-04-16 09:00:00 9.2 0 Calma 7 Sur 0 -- -- 93
2019-04-16 08:00:00 8.7 0 Calma 4 Norte 0 -- -- 93
2019-04-16 07:00:00 9.5 2 Norte 5 Oeste 0 -- -- 90
2019-04-16 06:00:00 10.3 3 Norte 6 Sudeste 0 -- -- 91
2019-04-16 05:00:00 10.7 0 Calma 8 Sudeste 0 -- -- 90
2019-04-16 04:00:00 11 0 Calma 5 Sudoeste 0 -- -- 88
2019-04-16 03:00:00 12.3 0 Calma 14 Norte 0 -- -- 82
2019-04-16 02:00:00 13.1 5 Norte 15 Noroeste 0 -- -- 80
2019-04-16 01:00:00 13 3 Noroeste 12 Norte 0 -- -- 78
2019-04-16 00:00:00 13.4 2 Noroeste 12 Sudeste 0 -- -- 76
2019-04-15 23:00:00 14.4 2 Norte 10 Norte 0 -- -- 75
2019-04-15 22:00:00 15.8 3 Norte 8 Este 0 -- -- 73
2019-04-15 21:00:00 16.9 3 Sudeste 16 Nordeste 0 -- -- 69
2019-04-15 20:00:00 18.2 3 Sur 13 Sur 0 -- -- 57
2019-04-15 19:00:00 20.1 3 Sudoeste 18 Sur 0 -- -- 45
2019-04-15 18:00:00 21.8 6 Sudeste 20 Sur 0 -- -- 38
2019-04-15 17:00:00 24 6 Sudeste 20 Sur 0 -- -- 30
2019-04-15 16:00:00 25.2 5 Sur 23 Sur 0 -- -- 37
2019-04-15 15:00:00 25.1 7 Sur 26 Sudoeste 0 -- -- 34
2019-04-15 14:00:00 25.1 6 Sur 13 Sur 0 -- -- 38
2019-04-15 13:00:00 23.9 5 Sudeste 11 Este 0 -- -- 36
2019-04-15 12:00:00 22.6 3 Sudoeste 10 Sudeste 0 -- -- 35
2019-04-15 11:00:00 19.7 2 Sur 4 Sudeste 0 -- -- 57
2019-04-15 10:00:00 14.6 0 Calma 2 Sur 0 -- -- 73
2019-04-15 09:00:00 11.8 0 Calma 4 Norte 0 -- -- 80
2019-04-15 08:00:00 10.8 2 Norte 3 Norte 0 -- -- 77
2019-04-15 07:00:00 10.9 2 Noroeste 4 Norte 0 -- -- 82
2019-04-15 06:00:00 10.9 0 Calma 3 Norte 0 -- -- 79
2019-04-15 05:00:00 11.3 2 Noroeste 4 Norte 0 -- -- 75
2019-04-15 04:00:00 11.9 0 Calma 4 Noroeste 0 -- -- 76
2019-04-15 03:00:00 12.9 2 Norte 4 Noroeste 0 -- -- 78
2019-04-15 02:00:00 13.8 2 Norte 3 Norte 0 -- -- 77
2019-04-15 01:00:00 14.7 0 Calma -- -- 0 -- -- 74
2019-04-15 00:00:00 15.3 2 Noroeste 3 Norte 0 -- -- 71
2019-04-14 23:00:00 16.2 0 Calma 4 Noroeste 0 -- -- 68
2019-04-14 22:00:00 16.9 0 Calma 4 Norte 0 -- -- 64
2019-04-14 21:00:00 18.8 0 Calma 4 Noroeste 0 -- -- 59
2019-04-14 20:00:00 21.1 2 Norte 9 Sur 0 -- -- 52
2019-04-14 19:00:00 23 2 Sur 13 Sur 0 -- -- 42
2019-04-14 18:00:00 24.3 5 Sur 18 Sur 0 -- -- 39
2019-04-14 17:00:00 25.5 5 Sur 17 Sur 0 -- -- 39
2019-04-14 16:00:00 26 5 Sudeste 15 Sudeste 0 -- -- 39
2019-04-14 15:00:00 25.9 5 Sur 15 Sur 0 -- -- 36
2019-04-14 14:00:00 25.3 6 Sur 17 Sur 0 -- -- 45
2019-04-14 13:00:00 24.6 5 Sur 13 Sur 0 -- -- 40
2019-04-14 12:00:00 23.1 3 Sudeste 9 Sur 0 -- -- 40
2019-04-14 11:00:00 19.7 3 Sur 6 Sur 0 -- -- 57
2019-04-14 10:00:00 14.3 3 Sur 6 Sur 0 -- -- 71
2019-04-14 09:00:00 10.4 0 Calma 4 Noroeste 0 -- -- 83
2019-04-14 08:00:00 10.2 0 Calma 6 Norte 0 -- -- 80
2019-04-14 07:00:00 10.4 2 Noroeste 5 Noroeste 0 -- -- 78
2019-04-14 06:00:00 10.7 3 Norte 8 Norte 0 -- -- 77
2019-04-14 05:00:00 10.5 0 Calma 4 Noroeste 0 -- -- 78
2019-04-14 04:00:00 11 2 Norte 3 Noroeste 0 -- -- 75
2019-04-14 03:00:00 11.3 2 Norte 4 Noroeste 0 -- -- 73
2019-04-14 02:00:00 12.4 0 Calma 4 Norte 0 -- -- 70
2019-04-14 01:00:00 13.7 0 Calma 10 Nordeste 0 -- -- 60
2019-04-14 00:00:00 14.3 3 Norte 10 Noroeste 0 -- -- 59
2019-04-13 23:00:00 14.6 5 Norte 13 Norte 0 -- -- 57
2019-04-13 22:00:00 15.9 3 Norte 14 Norte 0 -- -- 53
2019-04-13 21:00:00 17.1 5 Norte 18 Norte 0 -- -- 50
2019-04-13 20:00:00 18.8 3 Norte 15 Nordeste 0 -- -- 49
2019-04-13 19:00:00 20.8 2 Nordeste 21 Norte 0 -- -- 43
2019-04-13 18:00:00 21.7 5 Norte 21 Noroeste 0 -- -- 36
2019-04-13 17:00:00 23.2 4 Norte 19 Sudoeste 0 -- -- 37
2019-04-13 16:00:00 24 4 Norte 17 Sudeste 0 -- -- 35
2019-04-13 15:00:00 23.7 4 Sudeste 11 Sur 0 -- -- 39
2019-04-13 14:00:00 22.8 5 Sudeste 17 Este 0 -- -- 31
2019-04-13 13:00:00 22.1 5 Sudeste 12 Sudeste 0 -- -- 32
2019-04-13 12:00:00 21.5 4 Sudeste 11 Sur 0 -- -- 34
2019-04-13 11:00:00 17.7 3 Sudoeste 6 Sur 0 -- -- 55
2019-04-13 10:00:00 11.9 3 Sur 6 Sur 0 -- -- 70
2019-04-13 09:00:00 7.8 0 Calma 3 Norte 0 -- -- 86
2019-04-13 08:00:00 7.3 0 Calma 3 Noroeste 0 -- -- 84
2019-04-13 07:00:00 7.9 0 Calma 4 Norte 0 -- -- 81
2019-04-13 06:00:00 8.3 2 Noroeste 3 Norte 0 -- -- 78
2019-04-13 05:00:00 8.7 0 Calma 3 Norte 0 -- -- 77
2019-04-13 04:00:00 9.1 2 Noroeste 2 Norte 0 -- -- 75
2019-04-13 03:00:00 10.1 0 Calma 4 Norte 0 -- -- 68
2019-04-13 02:00:00 11.3 2 Noroeste 8 Noroeste 0 -- -- 64
2019-04-13 01:00:00 11.5 3 Noroeste 8 Noroeste 0 -- -- 64
2019-04-13 00:00:00 12 0 Calma 5 Oeste 0 -- -- 64
2019-04-12 23:00:00 12.7 4 Norte 9 Norte 0 -- -- 59
2019-04-12 22:00:00 14.9 3 Norte 14 Norte 0 -- -- 52
2019-04-12 21:00:00 14.9 3 Norte 9 Nordeste 0 -- -- 54
2019-04-12 20:00:00 17.8 2 Norte 13 Noroeste 0 -- -- 45
2019-04-12 19:00:00 19.2 3 Norte 18 Noroeste 0 -- -- 40
2019-04-12 18:00:00 20.1 4 Noroeste 17 Norte 0 -- -- 38
2019-04-12 17:00:00 21.1 4 Noroeste 18 Noroeste 0 -- -- 36
2019-04-12 16:00:00 22 6 Nordeste 18 Nordeste 0 -- -- 35
2019-04-12 15:00:00 21.8 7 Norte 19 Norte 0 -- -- 37
2019-04-12 14:00:00 20.8 5 Nordeste 13 Este 0 -- -- 34
2019-04-12 13:00:00 20.9 5 Sudeste 18 Sudeste 0 -- -- 35
2019-04-12 12:00:00 20 4 Este 16 Sudeste 0 -- -- 40
2019-04-12 11:00:00 17.1 3 Este 7 Sudeste 0 -- -- 51
2019-04-12 10:00:00 11.4 2 Sur 5 Sur 0 -- -- 79
2019-04-12 09:00:00 7.4 0 Calma 3 Noroeste 0 -- -- 93
2019-04-12 08:00:00 6.8 0 Calma 3 Noroeste 0 -- -- 91
2019-04-12 07:00:00 7.5 0 Calma 4 Norte 0 -- -- 89
2019-04-12 06:00:00 8 0 Calma 3 Norte 0 -- -- 89
2019-04-12 05:00:00 8.5 0 Calma 3 Norte 0 -- -- 88
2019-04-12 04:00:00 9.1 2 Noroeste 3 Noroeste 0 -- -- 86
2019-04-12 03:00:00 9.9 2 Noroeste 4 Norte 0 -- -- 84
2019-04-12 02:00:00 10.4 0 Calma 3 Este 0 -- -- 84
2019-04-12 01:00:00 10.8 0 Calma 4 Sudeste 0 -- -- 85
2019-04-12 00:00:00 11.7 0 Calma 9 Nordeste 0 -- -- 82
2019-04-11 23:00:00 12 4 Norte 8 Norte 0 -- -- 78
2019-04-11 22:00:00 11.6 3 Norte 6 Noroeste 0 -- -- 71
2019-04-11 21:00:00 13.1 3 Norte 5 Norte 0 -- -- 65
2019-04-11 20:00:00 16 0 Calma 14 Noroeste 0 -- -- 54
2019-04-11 19:00:00 17.2 5 Noroeste 17 Noroeste 0 -- -- 46
2019-04-11 18:00:00 17.7 4 Norte 21 Norte 0 -- -- 47
2019-04-11 17:00:00 18.6 6 Norte 22 Noroeste 0 -- -- 45
2019-04-11 16:00:00 19.3 5 Noroeste 23 Norte 0 -- -- 44
2019-04-11 15:00:00 19.4 7 Norte 27 Sudoeste 0 -- -- 48
2019-04-11 14:00:00 19.3 5 Norte 24 Noroeste 0 -- -- 48
2019-04-11 13:00:00 19.1 7 Norte 19 Norte 0 -- -- 44
2019-04-11 12:00:00 18.2 5 Noroeste 13 Norte 0 -- -- 46
2019-04-11 11:00:00 15.6 2 Sur 7 Sur 0 -- -- 59
2019-04-11 10:00:00 10.6 2 Sur 6 Sur 0 -- -- 82
2019-04-11 09:00:00 6.8 0 Calma 3 Norte 0 -- -- 93
2019-04-11 08:00:00 6.7 0 Calma 4 Norte 0 -- -- 91
2019-04-11 07:00:00 7.1 2 Norte 3 Norte 0 -- -- 89
2019-04-11 06:00:00 7.9 2 Noroeste 4 Noroeste 0 -- -- 88
2019-04-11 05:00:00 8.9 0 Calma 10 Norte 0 -- -- 85
2019-04-11 04:00:00 9 3 Norte 17 Noroeste 0 -- -- 85
2019-04-11 03:00:00 9.2 3 Noroeste 14 Norte 0 -- -- 87
2019-04-11 02:00:00 8.8 2 Noroeste 5 Norte 0 -- -- 90
2019-04-11 01:00:00 9.4 2 Norte 4 Norte 0 -- -- 91
2019-04-11 00:00:00 10 2 Noroeste 4 Norte 0 -- -- 89
2019-04-10 23:00:00 11.1 3 Norte 4 Noroeste 0 -- -- 85
2019-04-10 22:00:00 12.1 3 Norte 4 Noroeste 0 -- -- 82
2019-04-10 21:00:00 13.9 2 Sur 12 Sur 0 -- -- 76
2019-04-10 20:00:00 15.2 3 Sudeste 13 Sur 0 -- -- 69
2019-04-10 19:00:00 15.8 2 Sudeste 16 Sudoeste 0 -- -- 59
2019-04-10 18:00:00 16.2 3 Este 17 Norte 0 -- -- 56
2019-04-10 17:00:00 16.6 5 Norte 24 Noroeste 0 -- -- 54
2019-04-10 16:00:00 17.3 8 Norte 26 Norte 0 -- -- 50
2019-04-10 15:00:00 16.9 7 Norte 32 Noroeste 0 -- -- 51
2019-04-10 14:00:00 16.1 9 Norte 26 Nordeste 0 -- -- 51
2019-04-10 13:00:00 15.6 8 Norte 23 Norte 0 -- -- 53
2019-04-10 12:00:00 14.8 6 Norte 21 Norte 0 -- -- 58
2019-04-10 11:00:00 13.6 6 Norte 20 Noroeste 0 -- -- 64
2019-04-10 10:00:00 11 6 Norte 24 Noroeste 0 -- -- 77
2019-04-10 09:00:00 8.2 2 Norte 14 Nordeste 0 -- -- 87
2019-04-10 08:00:00 7.7 3 Noroeste 13 Norte 0 -- -- 90
2019-04-10 07:00:00 8.4 3 Norte 12 Noroeste 0 -- -- 89
2019-04-10 06:00:00 9 2 Norte 13 Norte 0 -- -- 87
2019-04-10 05:00:00 8.9 3 Noroeste 14 Nordeste 0 -- -- 90
2019-04-10 04:00:00 10 3 Nordeste 10 Norte 0 -- -- 86
2019-04-10 03:00:00 10.7 2 Este 10 Oeste 0 -- -- 86
2019-04-10 02:00:00 10.7 0 Calma 10 Sur 0 -- -- 89
2019-04-10 01:00:00 10.6 0 Calma 4 Norte 0 -- -- 90
2019-04-10 00:00:00 10.4 2 Norte 4 Norte 0 -- -- 90
2019-04-09 23:00:00 10.3 2 Norte 6 Sudeste 0 -- -- 88
2019-04-09 22:00:00 10.8 2 Noroeste 6 Sudeste 0 -- -- 85
2019-04-09 21:00:00 12.2 2 Noroeste 9 Sudoeste 0 -- -- 80
2019-04-09 20:00:00 13.8 3 Sur 17 Sudoeste 0 -- -- 70
2019-04-09 19:00:00 15.2 3 Este 16 Sudoeste 0 -- -- 63
2019-04-09 18:00:00 15.5 3 Este 17 Norte 0 -- -- 60
2019-04-09 17:00:00 16.6 4 Nordeste 21 Sudeste 0 -- -- 52
2019-04-09 16:00:00 17 4 Sur 19 Sur 0 -- -- 63
2019-04-09 15:00:00 16.2 6 Sur 19 Norte 0 -- -- 60
2019-04-09 14:00:00 15.5 4 Nordeste 14 Sur 0 -- -- 65
2019-04-09 13:00:00 13.9 3 Sudeste 23 Norte 0 -- -- 75
2019-04-09 12:00:00 14.8 4 Sur 16 Norte 0 -- -- 72
2019-04-09 11:00:00 11.8 3 Nordeste 9 Sudoeste 0 -- -- 88
2019-04-09 10:00:00 9.5 0 Calma 6 Noroeste 0.2 -- -- 98
2019-04-09 09:00:00 8 2 Noroeste 5 Norte 0 -- -- 98
2019-04-09 08:00:00 7.5 3 Norte 8 Nordeste 0 -- -- 96
2019-04-09 07:00:00 7.7 2 Norte 6 Norte 0 -- -- 95
2019-04-09 06:00:00 8.5 3 Norte 10 Nordeste 0 -- -- 92
2019-04-09 05:00:00 9.1 5 Norte 14 Sudeste 0 -- -- 90
2019-04-09 04:00:00 9.2 2 Norte 10 Este 0 -- -- 96
2019-04-09 03:00:00 9.8 4 Nordeste 14 Sudeste 0 -- -- 95
2019-04-09 02:00:00 9.7 2 Noroeste 7 Este 0 -- -- 98
2019-04-09 01:00:00 9.4 2 Noroeste 9 Sur 0 -- -- 98
2019-04-09 00:00:00 9.2 2 Norte 5 Este 0 -- -- 96
2019-04-08 23:00:00 10.1 2 Norte 6 Este 0 -- -- 94
2019-04-08 22:00:00 11.7 2 Norte 9 Este 1.6 -- -- 96
2019-04-08 21:00:00 12 2 Norte 9 Sur 0 -- -- 93
2019-04-08 20:00:00 12.8 2 Este 7 Sudeste 0.2 -- -- 91
2019-04-08 19:00:00 13.2 0 Calma 7 Sudoeste 0.6 -- -- 90
2019-04-08 18:00:00 14 0 Calma 12 Norte 0.6 -- -- 88
2019-04-08 17:00:00 15.3 3 Nordeste 18 Sudoeste 0.2 -- -- 81
2019-04-08 16:00:00 14.7 3 Sur 9 Sur 0 -- -- 81
2019-04-08 15:00:00 14.7 0 Calma 6 Sudeste 0 -- -- 91
2019-04-08 14:00:00 14.3 2 Sudeste 4 Este 0 -- -- 88
2019-04-08 13:00:00 14.7 2 Sudeste 8 Sudoeste 0 -- -- 83
2019-04-08 12:00:00 14.6 0 Calma 6 Este 0 -- -- 86
2019-04-08 11:00:00 13.9 0 Calma 8 Sudeste 0 -- -- 89
2019-04-08 10:00:00 12.6 0 Calma 4 Sur 0 -- -- 98
2019-04-08 09:00:00 10.7 0 Calma 4 Norte 0 -- -- 98
2019-04-08 08:00:00 11.1 0 Calma 4 Noroeste 0 -- -- 98
2019-04-08 07:00:00 11.7 0 Calma 3 Norte 0.2 -- -- 98
2019-04-08 06:00:00 11.8 0 Calma 3 Noroeste 0.2 -- -- 98
2019-04-08 05:00:00 11.7 2 Norte 3 Noroeste 0.2 -- -- 98
2019-04-08 04:00:00 11.6 2 Noroeste 3 Norte 0 -- -- 98
2019-04-08 03:00:00 11.6 0 Calma 3 Norte 0 -- -- 97
2019-04-08 02:00:00 11.9 0 Calma 4 Noroeste 0 -- -- 98
2019-04-08 01:00:00 12 2 Norte 3 Norte 0 -- -- 98
2019-04-08 00:00:00 12.1 2 Norte 4 Norte 0.2 -- -- 97
2019-04-07 23:00:00 12.3 0 Calma 7 Sur 1 -- -- 97
2019-04-07 22:00:00 12.6 0 Calma 14 Sudoeste 0.4 -- -- 96
2019-04-07 21:00:00 12.8 0 Calma 7 Sudeste 2.8 -- -- 97
2019-04-07 20:00:00 12.8 0 Calma 6 Noroeste 3.8 -- -- 97
2019-04-07 19:00:00 12.7 0 Calma 4 Sur 3.4 -- -- 96
2019-04-07 18:00:00 12.6 0 Calma 7 Sudoeste 1.6 -- -- 95
2019-04-07 17:00:00 12.4 0 Calma 6 Sudeste 1 -- -- 92
2019-04-07 16:00:00 13.1 0 Calma 13 Sur 0 -- -- 83
2019-04-07 15:00:00 13.8 3 Sudeste 14 Sudoeste 0.2 -- -- 78
2019-04-07 14:00:00 12.9 0 Calma 9 Este 0.4 -- -- 88
2019-04-07 13:00:00 12.8 0 Calma 8 Sur 0.2 -- -- 85
2019-04-07 12:00:00 12 2 Norte 13 Sudoeste 0 -- -- 85
2019-04-07 11:00:00 11.8 2 Sudeste 11 Norte 0 -- -- 84
2019-04-07 10:00:00 10 2 Norte 14 Sudoeste 0 -- -- 97
2019-04-07 09:00:00 8.5 2 Norte 5 Noroeste 0 -- -- 98
2019-04-07 08:00:00 8.1 2 Norte 7 Este 0 -- -- 97
2019-04-07 07:00:00 8.3 2 Norte 8 Norte 0 -- -- 97
2019-04-07 06:00:00 8.3 3 Norte 12 Nordeste 0 -- -- 97
2019-04-07 05:00:00 8.4 2 Norte 8 Este 1.6 -- -- 95
2019-04-07 04:00:00 8.7 0 Calma 6 Noroeste 0 -- -- 97
2019-04-07 03:00:00 8.7 0 Calma 6 Nordeste 0.2 -- -- 96
2019-04-07 02:00:00 8.7 0 Calma 5 Sur 0.6 -- -- 96
2019-04-07 01:00:00 9.1 0 Calma 7 Norte 0 -- -- 95
2019-04-07 00:00:00 9.1 0 Calma 11 Norte 0.2 -- -- 95
2019-04-06 23:00:00 9.5 2 Norte 10 Este 0.8 -- -- 92
2019-04-06 22:00:00 9.7 3 Norte 16 Norte 0.8 -- -- 89
2019-04-06 21:00:00 10.1 3 Nordeste 10 Oeste 0 -- -- 83
2019-04-06 20:00:00 10.3 2 Norte 12 Nordeste 0.6 -- -- 86
2019-04-06 19:00:00 10.6 3 Norte 17 Sur 0.6 -- -- 86
2019-04-06 18:00:00 12.4 4 Sur 18 Sudoeste 0 -- -- 72
2019-04-06 17:00:00 12.3 4 Sur 17 Este 0.4 -- -- 77
2019-04-06 16:00:00 12.4 3 Sudoeste 15 Sudoeste 1 -- -- 80
2019-04-06 15:00:00 13.5 4 Norte 19 Sur 0.2 -- -- 70
2019-04-06 14:00:00 11 4 Sudeste 18 Sur 0.8 -- -- 89
2019-04-06 13:00:00 12.5 4 Sudeste 18 Oeste 0.6 -- -- 82
2019-04-06 12:00:00 11.9 4 Sur 19 Sur 0 -- -- 78
2019-04-06 11:00:00 10 3 Sudoeste 10 Este 0 -- -- 89
2019-04-06 10:00:00 7.6 2 Oeste 6 Este 2.4 -- -- 97
2019-04-06 09:00:00 6.6 0 Calma 3 Norte 0.2 -- -- 97
2019-04-06 08:00:00 6.8 0 Calma 4 Norte 2.8 -- -- 96
2019-04-06 07:00:00 6.9 0 Calma 5 Este 0.6 -- -- 96
2019-04-06 06:00:00 7.2 0 Calma 7 Norte 1 -- -- 94
2019-04-06 05:00:00 7.5 0 Calma 6 Este 0.4 -- -- 92
2019-04-06 04:00:00 7.9 0 Calma 12 Oeste 0 -- -- 86
2019-04-06 03:00:00 8.3 2 Norte 15 Noroeste 0 -- -- 82
2019-04-06 02:00:00 8.1 3 Norte 13 Noroeste 0 -- -- 83
2019-04-06 01:00:00 7.8 2 Este 10 Norte 0 -- -- 84
2019-04-06 00:00:00 7.7 2 Noroeste 7 Norte 0.2 -- -- 91
2019-04-05 23:00:00 8.1 2 Norte 13 Este 0 -- -- 90
2019-04-05 22:00:00 8.6 0 Calma 6 Noroeste 0.6 -- -- 89
2019-04-05 21:00:00 8.8 2 Norte 6 Norte 0 -- -- 86
2019-04-05 20:00:00 10.9 5 Sudoeste 20 Sudoeste 0 -- -- 65
2019-04-05 19:00:00 11.6 3 Norte 16 Sudoeste 0 -- -- 60
2019-04-05 18:00:00 12.7 6 Nordeste 24 Sur 0 -- -- 56
2019-04-05 17:00:00 13.1 7 Sudoeste 27 Sur 0 -- -- 52
2019-04-05 16:00:00 12.9 6 Este 23 Sur 0 -- -- 60
2019-04-05 15:00:00 13.2 7 Norte 23 Norte 0 -- -- 62
2019-04-05 14:00:00 12.7 5 Nordeste 15 Nordeste 0.2 -- -- 78
2019-04-05 13:00:00 9.3 2 Norte 16 Noroeste 4 -- -- 92
2019-04-05 12:00:00 10 2 Noroeste 5 Oeste 1.2 -- -- 95
2019-04-05 11:00:00 9.7 0 Calma 2 Este 0.8 -- -- 96
2019-04-05 10:00:00 8.9 0 Calma 13 Sudoeste 3.2 -- -- 95
2019-04-05 09:00:00 9.1 2 Este 15 Noroeste 5 -- -- 93
2019-04-05 08:00:00 9.3 2 Oeste 8 Sur 3.2 -- -- 95
2019-04-05 07:00:00 9.3 0 Calma 3 Este 1.4 -- -- 93
2019-04-05 06:00:00 9.2 0 Calma 4 Sur 0.2 -- -- 90
2019-04-05 05:00:00 9 2 Norte 4 Norte 0 -- -- 88
2019-04-05 04:00:00 9.6 2 Nordeste 15 Sur 0 -- -- 84
2019-04-05 03:00:00 9.1 0 Calma 3 Noroeste 0 -- -- 82
2019-04-05 02:00:00 7.7 2 Norte 3 Norte 0 -- -- 85
2019-04-05 01:00:00 6.8 0 Calma 3 Norte 0 -- -- 82
2019-04-05 00:00:00 6.9 0 Calma 4 Norte 0 -- -- 78
2019-04-04 23:00:00 7.4 2 Norte 3 Noroeste 0 -- -- 73
2019-04-04 22:00:00 8.8 0 Calma 5 Sudeste 0 -- -- 67
2019-04-04 21:00:00 11.3 0 Calma 10 Sudeste 0 -- -- 57
2019-04-04 20:00:00 13.1 2 Sur 18 Sudeste 0 -- -- 53
2019-04-04 19:00:00 14.7 5 Sur 20 Sur 0 -- -- 56
2019-04-04 18:00:00 16.6 6 Sur 19 Sudoeste 0 -- -- 44
2019-04-04 17:00:00 17.7 6 Sur 19 Sur 0 -- -- 43
2019-04-04 16:00:00 18.5 8 Sur 21 Sur 0 -- -- 43
2019-04-04 15:00:00 18.7 4 Noroeste 17 Sudoeste 0 -- -- 40
2019-04-04 14:00:00 18.4 4 Nordeste 20 Sudoeste 0 -- -- 41
2019-04-04 13:00:00 18.2 4 Sudeste 15 Sur 0 -- -- 37
2019-04-04 12:00:00 17.6 4 Sudeste 18 Sur 0 -- -- 41
2019-04-04 11:00:00 15.1 4 Sur 9 Sur 0 -- -- 46
2019-04-04 10:00:00 9.6 0 Calma 5 Sudoeste 0 -- -- 75
2019-04-04 09:00:00 6.1 0 Calma 4 Noroeste 0 -- -- 84
2019-04-04 08:00:00 6.5 0 Calma 4 Noroeste 0 -- -- 83
2019-04-04 07:00:00 7.3 0 Calma 3 Sudoeste 0 -- -- 80
2019-04-04 06:00:00 8.5 0 Calma 5 Norte 0 -- -- 77
2019-04-04 05:00:00 9.4 2 Noroeste 15 Norte 0 -- -- 72
2019-04-04 04:00:00 10.2 3 Norte 14 Oeste 0 -- -- 73
2019-04-04 03:00:00 11.1 3 Norte 18 Norte 0 -- -- 70
2019-04-04 02:00:00 11.1 5 Norte 19 Norte 0 -- -- 73
2019-04-04 01:00:00 11.5 0 Calma 11 Noroeste 0 -- -- 74
2019-04-04 00:00:00 11.8 3 Norte 10 Nordeste 0 -- -- 71
2019-04-03 23:00:00 11.6 2 Norte 10 Norte 0 -- -- 72
2019-04-03 22:00:00 11.8 3 Norte 8 Norte 0 -- -- 68
2019-04-03 21:00:00 13.9 2 Norte 8 Sudoeste 0 -- -- 62
2019-04-03 20:00:00 16.9 3 Sudoeste 13 Nordeste 0 -- -- 45
2019-04-03 19:00:00 18.8 2 Norte 19 Norte 0 -- -- 43
2019-04-03 18:00:00 20.4 4 Sudoeste 15 Noroeste 0 -- -- 43
2019-04-03 17:00:00 21.5 5 Sudoeste 16 Sudoeste 0 -- -- 37
2019-04-03 16:00:00 22.2 4 Norte 16 Noroeste 0 -- -- 39
2019-04-03 15:00:00 22.2 4 Sur 19 Sur 0 -- -- 35
2019-04-03 14:00:00 21.4 5 Norte 18 Sur 0 -- -- 40
2019-04-03 13:00:00 22.1 5 Sur 16 Sur 0 -- -- 50
2019-04-03 12:00:00 20.4 4 Sur 14 Sudeste 0 -- -- 51
2019-04-03 11:00:00 16.8 5 Sur 12 Sudeste 0 -- -- 68
2019-04-03 10:00:00 11.3 0 Calma 8 Sudeste 0 -- -- 92
2019-04-03 09:00:00 8.2 0 Calma 3 Norte 0 -- -- 96
2019-04-03 08:00:00 7.9 2 Noroeste 3 Norte 0 -- -- 95
2019-04-03 07:00:00 8.3 0 Calma 3 Noroeste 0 -- -- 94
2019-04-03 06:00:00 8.5 2 Noroeste 4 Norte 0 -- -- 94
2019-04-03 05:00:00 8.6 0 Calma 3 Noroeste 0 -- -- 93
2019-04-03 04:00:00 9 0 Calma 3 Norte 0 -- -- 92
2019-04-03 03:00:00 9.4 2 Norte 5 Noroeste 0 -- -- 92
2019-04-03 02:00:00 9.7 0 Calma 4 Norte 0 -- -- 90
2019-04-03 01:00:00 10.6 2 Norte 4 Noroeste 0 -- -- 88
2019-04-03 00:00:00 11.5 2 Norte 3 Norte 0 -- -- 88
2019-04-02 23:00:00 12.3 0 Calma 4 Sudoeste 0 -- -- 85
2019-04-02 22:00:00 13.2 0 Calma 3 Norte 0 -- -- 84
2019-04-02 21:00:00 14 2 Norte 4 Noroeste 0 -- -- 80
2019-04-02 20:00:00 16.2 0 Calma 7 Sur 0 -- -- 74
2019-04-02 19:00:00 17.2 2 Sur 8 Sudoeste 0 -- -- 64
2019-04-02 18:00:00 18.3 3 Sur 12 Sur 0 -- -- 60
2019-04-02 17:00:00 19.3 5 Sur 14 Sudeste 0 -- -- 58
2019-04-02 16:00:00 20.2 4 Sudeste 15 Sur 0 -- -- 51
2019-04-02 15:00:00 20.1 6 Sur 13 Sur 0 -- -- 49
2019-04-02 14:00:00 20.2 4 Sur 13 Sur 0 -- -- 51
2019-04-02 13:00:00 18.9 4 Sur 11 Sudeste 0 -- -- 51
2019-04-02 12:00:00 16.9 2 Sur 6 Sur 0 -- -- 57
2019-04-02 11:00:00 13.6 4 Sur 8 Sur 0 -- -- 78
2019-04-02 10:00:00 9.4 3 Sur 5 Sudoeste 0 -- -- 98
2019-04-02 09:00:00 6.4 0 Calma 2 Norte 0 -- -- 98
2019-04-02 08:00:00 6.2 0 Calma 3 Noroeste 0 -- -- 97
2019-04-02 07:00:00 6.5 0 Calma 3 Norte 0 -- -- 97
2019-04-02 06:00:00 6.8 0 Calma 2 Noroeste 0 -- -- 97
2019-04-02 05:00:00 7.3 0 Calma 3 Norte 0 -- -- 97
2019-04-02 04:00:00 7.6 0 Calma 2 Norte 0 -- -- 96
2019-04-02 03:00:00 8 0 Calma 3 Norte 0 -- -- 96
2019-04-02 02:00:00 8.5 0 Calma 3 Noroeste 0 -- -- 96
2019-04-02 01:00:00 9 0 Calma 3 Norte 0 -- -- 95
2019-04-02 00:00:00 9.4 2 Norte 3 Norte 0 -- -- 94
2019-04-01 23:00:00 10.2 0 Calma 4 Norte 0 -- -- 93
2019-04-01 22:00:00 11 3 Norte 4 Norte 0 -- -- 91
2019-04-01 21:00:00 12.9 2 Norte 4 Norte 0 -- -- 87
2019-04-01 20:00:00 14.6 2 Noroeste 9 Sudoeste 0 -- -- 84
2019-04-01 19:00:00 15.9 3 Sur 10 Sur 0 -- -- 76
2019-04-01 18:00:00 15.8 3 Sur 16 Oeste 0 -- -- 78
2019-04-01 17:00:00 15.9 3 Sur 14 Este 0 -- -- 82
2019-04-01 16:00:00 15.3 3 Sur 7 Sur 0.2 -- -- 83
2019-04-01 15:00:00 14.2 0 Calma 8 Sur 0 -- -- 88
2019-04-01 14:00:00 13.5 3 Sur 6 Sudeste 0.2 -- -- 94
2019-04-01 13:00:00 12.8 0 Calma 3 Este 0 -- -- 96
2019-04-01 12:00:00 12.2 0 Calma 3 Sudoeste 3.8 -- -- 97
2019-04-01 11:00:00 11.7 0 Calma 4 Sudeste 4.8 -- -- 97
2019-04-01 10:00:00 11.5 0 Calma 4 Sur 0.2 -- -- 97
2019-04-01 09:00:00 11.1 0 Calma 8 Sudeste 1.8 -- -- 97
2019-04-01 08:00:00 11.3 0 Calma 7 Oeste 2.8 -- -- 97
2019-04-01 07:00:00 11.4 0 Calma 6 Sur 5 -- -- 97
2019-04-01 06:00:00 11.2 2 Oeste 5 Sur 0 -- -- 96
2019-04-01 05:00:00 11.2 0 Calma 4 Sudoeste 0 -- -- 95
2019-04-01 04:00:00 11.2 0 Calma 5 Sur 0 -- -- 95
2019-04-01 03:00:00 11.2 0 Calma 3 Norte 0 -- -- 95
2019-04-01 02:00:00 11.4 0 Calma 3 Norte 0 -- -- 93
2019-04-01 01:00:00 12.1 -- -- -- -- 0 -- -- 91
2019-04-01 00:00:00 13.3 0 Calma 3 Sudeste 0 -- -- 92
2019-03-31 23:00:00 13.6 0 Calma 2 Noroeste 0 -- -- 91
2019-03-31 22:00:00 14 0 Calma 6 Sudoeste 0 -- -- 89
2019-03-31 21:00:00 14.4 0 Calma 6 Sudoeste 0 -- -- 87
2019-03-31 20:00:00 15.1 2 Sur 11 Sudoeste 0 -- -- 83
2019-03-31 19:00:00 16.2 3 Sur 12 Sur 0 -- -- 81
2019-03-31 18:00:00 16.6 2 Sur 8 Oeste 0 -- -- 81
2019-03-31 17:00:00 16.7 3 Sur 6 Este 0.4 -- -- 80
2019-03-31 16:00:00 16.7 2 Este 15 Sudoeste 0.4 -- -- 79
2019-03-31 15:00:00 18.2 5 Sudeste 10 Sudoeste 0 -- -- 71
2019-03-31 14:00:00 16.7 3 Sur 9 Oeste 0 -- -- 76
2019-03-31 13:00:00 17 5 Sur 12 Sur 0 -- -- 75
2019-03-31 12:00:00 15.7 3 Sur 9 Sur 0 -- -- 79
2019-03-31 11:00:00 12.7 0 Calma 3 Sur 0 -- -- 95
2019-03-31 10:00:00 11.7 0 Calma 4 Norte 0.2 -- -- 97
2019-03-31 09:00:00 11.3 0 Calma 2 Sur 0.6 -- -- 97
2019-03-31 08:00:00 11.2 0 Calma 3 Sudeste 0.4 -- -- 97
2019-03-31 07:00:00 11.3 0 Calma 5 Sur 0 -- -- 97
2019-03-31 06:00:00 11.4 0 Calma 4 Sur 0 -- -- 96
2019-03-31 05:00:00 11.6 0 Calma 4 Sudoeste 0.2 -- -- 95
2019-03-31 03:00:00 11.8 2 Norte 6 Norte 0.6 -- -- 95
2019-03-31 01:00:00 11.8 2 Norte 5 Norte 1 -- -- 93
2019-03-31 00:00:00 11.7 0 Calma 5 Noroeste 0 -- -- 92
2019-03-30 23:00:00 11.8 0 Calma 2 Sudoeste 0 -- -- 88
2019-03-30 22:00:00 11.9 0 Calma 6 Norte 0 -- -- 87
2019-03-30 21:00:00 12.4 0 Calma 3 Sudoeste 0 -- -- 82
2019-03-30 20:00:00 13.1 0 Calma 8 Este 0 -- -- 76
2019-03-30 19:00:00 13.3 0 Calma 4 Nordeste 0 -- -- 81
2019-03-30 18:00:00 13.8 3 Sudeste 9 Sudeste 0 -- -- 77
2019-03-30 17:00:00 14 3 Este 15 Sudeste 0 -- -- 72
2019-03-30 16:00:00 15.3 4 Sudeste 18 Este 0 -- -- 68
2019-03-30 15:00:00 16.9 4 Este 18 Norte 0 -- -- 60
2019-03-30 14:00:00 17.4 9 Sudeste 25 Sudeste 0 -- -- 58
2019-03-30 13:00:00 18.2 7 Sudeste 22 Este 0 -- -- 54
2019-03-30 12:00:00 16.9 7 Sudeste 23 Sudeste 0 -- -- 56
2019-03-30 11:00:00 16.7 5 Sudeste 17 Sudeste 0 -- -- 59
2019-03-30 10:00:00 15.8 6 Este 19 Nordeste 0 -- -- 59
2019-03-30 09:00:00 13.4 4 Este 19 Sudeste 0 -- -- 62
2019-03-30 08:00:00 11.4 4 Norte 17 Norte 0 -- -- 67
2019-03-30 07:00:00 10.1 2 Norte 8 Norte 0 -- -- 81
2019-03-30 06:00:00 8.6 2 Norte 5 Noroeste 0 -- -- 88
2019-03-30 05:00:00 9.2 0 Calma 4 Norte 0 -- -- 87
2019-03-30 04:00:00 9.7 0 Calma 4 Norte 0 -- -- 84
2019-03-30 03:00:00 9.8 0 Calma 4 Norte 0 -- -- 84
2019-03-30 02:00:00 10 3 Norte 4 Norte 0 -- -- 83
2019-03-30 01:00:00 10.8 2 Norte 3 Norte 0 -- -- 82
2019-03-30 00:00:00 10.8 0 Calma 6 Oeste 0 -- -- 80
2019-03-29 23:00:00 11.1 0 Calma 9 Sudeste 0 -- -- 78
2019-03-29 22:00:00 10.2 2 Norte 5 Norte 0 -- -- 79
2019-03-29 21:00:00 10.8 2 Norte 6 Norte 0 -- -- 79
2019-03-29 20:00:00 12.2 0 Calma 10 Norte 0 -- -- 73
2019-03-29 19:00:00 13.6 3 Nordeste 13 Este 0 -- -- 65
2019-03-29 18:00:00 14.4 4 Este 15 Nordeste 0 -- -- 65
2019-03-29 17:00:00 14.6 4 Nordeste 21 Sudeste 0 -- -- 65
2019-03-29 16:00:00 15.1 4 Sudeste 19 Sudeste 0 -- -- 61
2019-03-29 15:00:00 15.6 5 Sudeste 15 Sudeste 0 -- -- 59
2019-03-29 14:00:00 15.9 4 Sudeste 21 Sur 0 -- -- 58
2019-03-29 13:00:00 15.1 4 Este 15 Nordeste 0 -- -- 61
2019-03-29 12:00:00 14.4 3 Sudeste 18 Sudeste 0 -- -- 63
2019-03-29 11:00:00 13.9 4 Este 13 Sudeste 0 -- -- 64
2019-03-29 10:00:00 12.9 3 Sudeste 10 Sudeste 0 -- -- 68
2019-03-29 09:00:00 12.2 5 Sudeste 12 Sudeste 0 -- -- 70
2019-03-29 08:00:00 10.7 0 Calma 17 Sudeste 0 -- -- 75
2019-03-29 07:00:00 9.7 0 Calma 5 Noroeste 0 -- -- 76
2019-03-29 06:00:00 9 0 Calma 4 Norte 0 -- -- 79
2019-03-29 05:00:00 8.9 2 Norte 4 Noroeste 0 -- -- 75
2019-03-29 04:00:00 10 0 Calma 10 Este 0 -- -- 67
2019-03-29 03:00:00 10.8 4 Nordeste 17 Sudeste 0 -- -- 60
2019-03-29 02:00:00 11.2 3 Nordeste 14 Este 0 -- -- 52
2019-03-29 01:00:00 11.3 2 Norte 15 Sudeste 0 -- -- 55
2019-03-29 00:00:00 12 3 Nordeste 23 Nordeste 0 -- -- 55
2019-03-28 23:00:00 12.3 5 Este 24 Sudeste 0 -- -- 54
2019-03-28 22:00:00 12.5 5 Nordeste 26 Norte 0 -- -- 54
2019-03-28 21:00:00 12.6 3 Norte 19 Norte 0 -- -- 35
2019-03-28 20:00:00 13.3 4 Nordeste 18 Nordeste 0 -- -- 40
2019-03-28 19:00:00 13.9 4 Nordeste 17 Sudeste 0 -- -- 40
2019-03-28 18:00:00 14.6 6 Nordeste 40 Sudeste 0 -- -- 37
2019-03-28 17:00:00 15.3 10 Sudeste 34 Sudeste 0 -- -- 44
2019-03-28 16:00:00 16.3 6 Este 38 Sudeste 0 -- -- 41
2019-03-28 15:00:00 16.3 11 Sudeste 39 Sudeste 0 -- -- 46
2019-03-28 14:00:00 16.6 10 Este 25 Sudeste 0 -- -- 46
2019-03-28 13:00:00 16.8 6 Nordeste 24 Sudeste 0 -- -- 47
2019-03-28 12:00:00 16.7 6 Nordeste 24 Nordeste 0 -- -- 45
2019-03-28 11:00:00 16.1 5 Nordeste 24 Norte 0 -- -- 46
2019-03-28 10:00:00 14.7 7 Nordeste 19 Sur 0 -- -- 51
2019-03-28 09:00:00 12.7 4 Este 16 Sudeste 0 -- -- 58
2019-03-28 08:00:00 10.8 3 Este 17 Sudeste 0 -- -- 65
2019-03-28 07:00:00 9.9 0 Calma 12 Sudeste 0 -- -- 70
2019-03-28 06:00:00 10 3 Norte 12 Norte 0 -- -- 67
2019-03-28 05:00:00 9.8 0 Calma 12 Norte 0 -- -- 68
2019-03-28 04:00:00 10.6 2 Norte 12 Nordeste 0 -- -- 65
2019-03-28 03:00:00 11.4 4 Nordeste 16 Sur 0 -- -- 58
2019-03-28 02:00:00 11.2 3 Nordeste 14 Sur 0 -- -- 60
2019-03-28 01:00:00 11 2 Norte 12 Sudeste 0 -- -- 72
2019-03-28 00:00:00 11.6 2 Noroeste 5 Sudoeste 0 -- -- 71
2019-03-27 23:00:00 11.8 0 Calma 9 Sudoeste 0 -- -- 70
2019-03-27 22:00:00 11.7 2 Oeste 13 Norte 0 -- -- 65
2019-03-27 21:00:00 11.5 0 Calma 25 Sudeste 0 -- -- 63
2019-03-27 20:00:00 12.2 3 Este 15 Sudeste 0 -- -- 56
2019-03-27 19:00:00 13.2 5 Nordeste 22 Sudeste 0 -- -- 50
2019-03-27 18:00:00 13.9 4 Este 25 Sudoeste 0 -- -- 43
2019-03-27 17:00:00 14.9 6 Sudeste 33 Sudeste 0 -- -- 44
2019-03-27 16:00:00 15.8 6 Sudeste 42 Sudeste 0 -- -- 39
2019-03-27 15:00:00 16.8 8 Sudeste 29 Sudeste 0 -- -- 34
2019-03-27 14:00:00 17 8 Nordeste 36 Este 0 -- -- 32
2019-03-27 13:00:00 16.9 8 Este 27 Sudeste 0 -- -- 34
2019-03-27 12:00:00 16.1 9 Norte 29 Sur 0 -- -- 40
2019-03-27 11:00:00 15.8 6 Este 30 Sudeste 0 -- -- 44
2019-03-27 10:00:00 13.3 4 Este 23 Sudeste 0 -- -- 53
2019-03-27 09:00:00 12.4 5 Nordeste 27 Sudeste 0 -- -- 58
2019-03-27 08:00:00 11.6 5 Nordeste 28 Norte 0 -- -- 59
2019-03-27 07:00:00 11.6 4 Norte 22 Noroeste 0 -- -- 58
2019-03-27 06:00:00 11.7 5 Norte 18 Nordeste 0 -- -- 52
2019-03-27 05:00:00 11.5 5 Norte 21 Noroeste 0 -- -- 55
2019-03-27 04:00:00 11.7 3 Norte 19 Norte 0 -- -- 63
2019-03-27 03:00:00 11.9 2 Norte 10 Sudoeste 0 -- -- 63
2019-03-27 02:00:00 12.2 5 Sudoeste 14 Sudeste 0 -- -- 59
2019-03-27 01:00:00 12.4 3 Noroeste 23 Sudeste 0 -- -- 57
2019-03-27 00:00:00 12.9 5 Sudeste 29 Sudeste 0 -- -- 53
2019-03-26 23:00:00 13.4 8 Sudeste 30 Sudoeste 0 -- -- 67
2019-03-26 22:00:00 13.9 6 Sur 25 Sudeste 0 -- -- 74
2019-03-26 21:00:00 14 5 Sur 27 Sudeste 0 -- -- 73
2019-03-26 20:00:00 14 6 Sudeste 21 Sudeste 0 -- -- 72
2019-03-26 19:00:00 15.1 3 Sudoeste 11 Sudoeste 0 -- -- 65
2019-03-26 18:00:00 15.8 3 Sudoeste 16 Sur 0 -- -- 58
2019-03-26 17:00:00 16.6 5 Sur 16 Sur 0 -- -- 60
2019-03-26 16:00:00 17.9 4 Sudeste 23 Este 0 -- -- 47
2019-03-26 15:00:00 18.9 6 Sudeste 28 Este 0 -- -- 40
2019-03-26 14:00:00 18.3 7 Sudeste 24 Sudeste 0 -- -- 41
2019-03-26 13:00:00 19.7 8 Este 29 Sudeste 0 -- -- 42
2019-03-26 12:00:00 19.6 8 Este 34 Sudeste 0 -- -- 45
2019-03-26 11:00:00 19.8 7 Este 33 Sudeste 0 -- -- 45
2019-03-26 10:00:00 18.5 6 Este 24 Sudeste 0 -- -- 50
2019-03-26 09:00:00 14 2 Sudeste 6 Sur 0 -- -- 68
2019-03-26 08:00:00 10.9 2 Noroeste 4 Nordeste 0 -- -- 77
2019-03-26 07:00:00 11.5 2 Norte 5 Sur 0 -- -- 73
2019-03-26 06:00:00 12.7 2 Oeste 11 Sur 0 -- -- 69
2019-03-26 05:00:00 14.2 3 Nordeste 15 Norte 0 -- -- 61
2019-03-26 04:00:00 14.1 2 Este 14 Norte 0 -- -- 64
2019-03-26 03:00:00 14.9 3 Norte 19 Norte 0 -- -- 58
2019-03-26 02:00:00 15.4 4 Nordeste 24 Sudeste 0 -- -- 56
2019-03-26 01:00:00 15.3 5 Nordeste 17 Nordeste 0 -- -- 57
2019-03-26 00:00:00 12 3 Norte 11 Nordeste 0 -- -- 72
2019-03-25 23:00:00 12 2 Norte 6 Sudeste 0 -- -- 74
2019-03-25 22:00:00 12.1 2 Norte 8 Noroeste 0 -- -- 73
2019-03-25 21:00:00 12.6 0 Calma 5 Sudeste 0 -- -- 74
2019-03-25 20:00:00 14.5 0 Calma 18 Sudoeste 0 -- -- 67
2019-03-25 19:00:00 16.8 3 Sur 17 Este 0 -- -- 57
2019-03-25 18:00:00 17.6 3 Noroeste 17 Sudeste 0 -- -- 56
2019-03-25 17:00:00 18.4 5 Nordeste 19 Norte 0 -- -- 52
2019-03-25 16:00:00 19.9 5 Sur 17 Sur 0 -- -- 51
2019-03-25 15:00:00 20.3 6 Sudeste 23 Sudeste 0 -- -- 50
2019-03-25 14:00:00 20.6 6 Sudeste 24 Sudeste 0 -- -- 45
2019-03-25 13:00:00 20.3 6 Este 22 Sudeste 0 -- -- 46
2019-03-25 12:00:00 19.9 5 Este 21 Sudeste 0 -- -- 48
2019-03-25 11:00:00 18.8 7 Sudeste 19 Sudeste 0 -- -- 50
2019-03-25 10:00:00 17.8 5 Este 22 Sudeste 0 -- -- 54
2019-03-25 09:00:00 15 3 Este 13 Sudeste 0 -- -- 63
2019-03-25 08:00:00 10.6 0 Calma 4 Norte 0 -- -- 79
2019-03-25 07:00:00 11.4 2 Noroeste 5 Norte 0 -- -- 74
2019-03-25 06:00:00 12.8 3 Norte 10 Norte 0 -- -- 69
2019-03-25 05:00:00 13.8 3 Nordeste 17 Norte 0 -- -- 64
2019-03-25 04:00:00 13.6 3 Este 24 Nordeste 0 -- -- 65
2019-03-25 03:00:00 12.2 2 Norte 13 Norte 0 -- -- 72
2019-03-25 02:00:00 10.9 0 Calma 4 Noroeste 0 -- -- 78
2019-03-25 01:00:00 11.4 0 Calma 4 Norte 0 -- -- 74
2019-03-25 00:00:00 12.9 0 Calma 8 Sur 0 -- -- 66
2019-03-24 23:00:00 14.7 4 Este 23 Sudeste 0 -- -- 56
2019-03-24 22:00:00 14.4 4 Nordeste 15 Norte 0 -- -- 57
2019-03-24 21:00:00 14.2 3 Nordeste 21 Sudeste 0 -- -- 59
2019-03-24 20:00:00 15.1 3 Nordeste 24 Norte 0 -- -- 57
2019-03-24 19:00:00 15.5 4 Norte 28 Sudeste 0 -- -- 59
2019-03-24 18:00:00 16.6 6 Sur 24 Sudeste 0 -- -- 54
2019-03-24 17:00:00 17.7 5 Sudeste 21 Sur 0 -- -- 52
2019-03-24 16:00:00 17.9 8 Sudeste 23 Sudeste 0 -- -- 54
2019-03-24 15:00:00 17 8 Sudeste 31 Sur 0 -- -- 58
2019-03-24 14:00:00 16.4 9 Sudeste 27 Sudeste 0 -- -- 57
2019-03-24 13:00:00 16.8 6 Este 22 Sudeste 0 -- -- 60
2019-03-24 12:00:00 15.4 6 Sudeste 20 Sur 0 -- -- 68
2019-03-24 11:00:00 14.2 3 Este 21 Sur 0 -- -- 73
2019-03-24 10:00:00 14.6 4 Sudeste 17 Sudeste 0 -- -- 70
2019-03-24 09:00:00 13 0 Calma 7 Sudeste 0 -- -- 77
2019-03-24 08:00:00 12.8 0 Calma 13 Sudeste 0 -- -- 74
2019-03-24 07:00:00 12.6 0 Calma 5 Sur 0 -- -- 76
2019-03-24 06:00:00 12.9 3 Sudeste 10 Nordeste 0 -- -- 74
2019-03-24 05:00:00 12.8 3 Este 9 Nordeste 0 -- -- 74
2019-03-24 04:00:00 12.8 0 Calma 10 Sudeste 0 -- -- 73
2019-03-24 03:00:00 12.6 0 Calma 8 Este 0 -- -- 72
2019-03-24 02:00:00 12.9 0 Calma 19 Sudeste 0 -- -- 72
2019-03-24 01:00:00 13.3 6 Sudeste 22 Sudeste 0 -- -- 70
2019-03-24 00:00:00 13.2 2 Norte 21 Sudeste 0 -- -- 69
2019-03-23 23:00:00 13.2 4 Sudeste 17 Este 0 -- -- 68
2019-03-23 22:00:00 13 4 Sudeste 15 Sudeste 0 -- -- 67
2019-03-23 21:00:00 13.1 3 Nordeste 14 Sudeste 0 -- -- 64
2019-03-23 20:00:00 13.1 2 Norte 17 Sudeste 0 -- -- 63
2019-03-23 19:00:00 14.1 2 Nordeste 19 Sur 0 -- -- 60
2019-03-23 18:00:00 15.2 6 Sudeste 33 Sudeste 0 -- -- 54
2019-03-23 17:00:00 16.1 7 Sudeste 33 Sudeste 0 -- -- 54
2019-03-23 16:00:00 17 10 Sudeste 37 Sudeste 0 -- -- 49
2019-03-23 15:00:00 16.6 9 Este 36 Sudeste 0 -- -- 52
2019-03-23 14:00:00 16.5 12 Sudeste 40 Sur 0 -- -- 55
2019-03-23 13:00:00 16.8 7 Este 24 Sudeste 0 -- -- 56
2019-03-23 12:00:00 16.4 6 Este 31 Sudeste 0 -- -- 55
2019-03-23 11:00:00 16.2 5 Nordeste 26 Norte 0 -- -- 58
2019-03-23 10:00:00 15.3 5 Este 19 Noroeste 0 -- -- 61
2019-03-23 09:00:00 13.5 5 Nordeste 24 Nordeste 0 -- -- 66
2019-03-23 08:00:00 12.7 3 Norte 19 Sudeste 0 -- -- 68
2019-03-23 07:00:00 12.4 3 Nordeste 19 Sudeste 0 -- -- 68
2019-03-23 06:00:00 12.5 5 Sudeste 22 Sudeste 0 -- -- 66
2019-03-23 05:00:00 12.6 5 Norte 25 Sudeste 0 -- -- 67
2019-03-23 04:00:00 12 4 Norte 22 Noroeste 0 -- -- 67
2019-03-23 03:00:00 12.6 4 Nordeste 24 Noroeste 0 -- -- 64
2019-03-23 02:00:00 12.6 6 Este 28 Sudeste 0 -- -- 63
2019-03-23 01:00:00 12.5 6 Nordeste 22 Norte 0 -- -- 61
2019-03-23 00:00:00 12.3 6 Nordeste 20 Este 0 -- -- 55
2019-03-22 23:00:00 12.3 6 Nordeste 21 Este 0 -- -- 57
2019-03-22 22:00:00 11.9 4 Nordeste 19 Norte 0 -- -- 59
2019-03-22 21:00:00 12 5 Nordeste 19 Este 0 -- -- 61
2019-03-22 20:00:00 12 4 Norte 26 Sudeste 0 -- -- 65
2019-03-22 19:00:00 13 4 Norte 15 Norte 0 -- -- 64
2019-03-22 18:00:00 14 7 Sudeste 23 Sudeste 0 -- -- 62
2019-03-22 17:00:00 15.6 3 Sudeste 18 Sudeste 0 -- -- 58
2019-03-22 16:00:00 16.2 6 Sudeste 25 Sur 0 -- -- 56
2019-03-22 15:00:00 16 9 Sur 29 Sudeste 0 -- -- 57
2019-03-22 14:00:00 15.5 7 Este 22 Sudeste 0 -- -- 55
2019-03-22 13:00:00 16.3 6 Este 20 Este 0 -- -- 52
2019-03-22 12:00:00 15.8 4 Sudeste 21 Sudeste 0 -- -- 52
2019-03-22 11:00:00 15.4 6 Este 20 Nordeste 0 -- -- 55
2019-03-22 10:00:00 14.4 8 Sudeste 22 Sudeste 0 -- -- 54
2019-03-22 09:00:00 12.6 6 Sudeste 19 Sudeste 0 -- -- 59
2019-03-22 08:00:00 10.6 3 Nordeste 10 Sudeste 0 -- -- 71
2019-03-22 07:00:00 10.8 3 Este 15 Sudeste 0 -- -- 69
2019-03-22 06:00:00 10.7 3 Nordeste 14 Sudeste 0 -- -- 69
2019-03-22 05:00:00 11.1 2 Nordeste 21 Este 0 -- -- 68
2019-03-22 04:00:00 11.3 6 Este 23 Sudeste 0 -- -- 67
2019-03-22 03:00:00 11.4 3 Este 19 Sudeste 0 -- -- 67
2019-03-22 02:00:00 11.4 3 Noroeste 22 Sudeste 0 -- -- 67
2019-03-22 01:00:00 11.5 4 Sudeste 17 Norte 0 -- -- 65
2019-03-22 00:00:00 11.5 3 Nordeste 19 Noroeste 0 -- -- 66
2019-03-21 23:00:00 10.6 4 Este 21 Sur 0 -- -- 65
2019-03-21 22:00:00 10.5 3 Norte 13 Norte 0 -- -- 67
2019-03-21 21:00:00 10.8 3 Norte 13 Este 0 -- -- 64
2019-03-21 20:00:00 11.2 2 Norte 20 Sudeste 0 -- -- 64
2019-03-21 19:00:00 12.1 4 Sudeste 18 Nordeste 0 -- -- 60
2019-03-21 18:00:00 12.9 5 Sur 16 Sur 0 -- -- 59
2019-03-21 17:00:00 14.1 6 Sudeste 28 Sur 0 -- -- 51
2019-03-21 16:00:00 15.4 8 Sudeste 29 Este 0 -- -- 44
2019-03-21 15:00:00 16.1 9 Sudeste 31 Este 0 -- -- 45
2019-03-21 14:00:00 15.8 7 Sudeste 34 Sudeste 0 -- -- 46
2019-03-21 13:00:00 16.2 8 Sudeste 31 Sudoeste 0 -- -- 45
2019-03-21 12:00:00 15.2 7 Sudeste 23 Sudeste 0 -- -- 44
2019-03-21 11:00:00 14.4 6 Sudeste 21 Sudeste 0 -- -- 56
2019-03-21 10:00:00 12.6 6 Sudeste 23 Sudeste 0 -- -- 58
2019-03-21 09:00:00 9.8 5 Este 16 Sudeste 0 -- -- 72
2019-03-21 08:00:00 8.9 2 Nordeste 16 Sudeste 0 -- -- 74
2019-03-21 07:00:00 7.7 4 Sudeste 12 Este 0 -- -- 86
2019-03-21 06:00:00 7.9 2 Norte 8 Este 0 -- -- 89
2019-03-21 05:00:00 8.9 2 Nordeste 10 Sudeste 0.2 -- -- 87
2019-03-21 04:00:00 8.8 0 Calma 11 Nordeste 0.2 -- -- 92
2019-03-21 03:00:00 9.4 3 Norte 10 Norte 0.4 -- -- 87
2019-03-21 02:00:00 9.8 5 Nordeste 20 Nordeste 0.2 -- -- 78
2019-03-21 01:00:00 9.6 2 Norte 15 Sudeste 0.2 -- -- 84
2019-03-21 00:00:00 10.7 3 Nordeste 23 Este 0 -- -- 73